Time;durP1;ratioP1;P1;durP2;ratioP2;P2;SDS_P1;SDS_P2;PMS_P1;PMS_P2;Temp;Humidity;BMP_temperature;BMP_pressure;BME280_temperature;BME280_humidity;BME280_pressure;Samples;Min_cycle;Max_cycle;Signal;HPM_P1;HPM_P2
2022/08/06 00:01:54;;;;;;;0.10;0.10;;;21.40;99.90;;;;;;5052496;28;20021;-73
2022/08/06 00:04:21;;;;;;;0.10;0.10;;;21.70;99.90;;;;;;5052511;28;20032;-73
2022/08/06 00:06:47;;;;;;;0.10;0.10;;;21.60;99.90;;;;;;5050823;28;20036;-73
2022/08/06 00:09:12;;;;;;;0.10;0.10;;;21.80;99.90;;;;;;5052200;28;20415;-73
2022/08/06 00:11:39;;;;;;;0.10;0.10;;;21.90;99.90;;;;;;5052511;28;20052;-73
2022/08/06 00:14:05;;;;;;;0.15;0.15;;;21.60;99.90;;;;;;5052292;28;20524;-73
2022/08/06 00:16:31;;;;;;;0.08;0.08;;;21.60;99.90;;;;;;5052114;28;20083;-73
2022/08/06 00:18:56;;;;;;;0.00;0.00;;;21.60;99.90;;;;;;5052083;28;20076;-73
2022/08/06 00:21:22;;;;;;;0.10;0.10;;;21.50;99.90;;;;;;5052184;28;20036;-73
2022/08/06 00:23:48;;;;;;;0.00;0.00;;;21.40;99.90;;;;;;5051033;28;20029;-73
2022/08/06 00:26:14;;;;;;;0.10;0.10;;;21.40;99.90;;;;;;5052021;28;20057;-73
2022/08/06 00:28:40;;;;;;;0.10;0.10;;;21.30;99.90;;;;;;5033945;28;20053;-73
2022/08/06 00:31:07;;;;;;;0.20;0.20;;;21.30;99.90;;;;;;5050867;28;20028;-73
2022/08/06 00:33:33;;;;;;;0.10;0.10;;;21.60;99.90;;;;;;5050754;28;20021;-73
2022/08/06 00:35:59;;;;;;;0.10;0.10;;;21.40;99.90;;;;;;5050822;28;20028;-73
2022/08/06 00:38:25;;;;;;;0.10;0.10;;;21.20;99.90;;;;;;5050636;28;20508;-73
2022/08/06 00:40:52;;;;;;;0.10;0.10;;;21.10;99.90;;;;;;5052410;28;20029;-73
2022/08/06 00:43:18;;;;;;;0.15;0.15;;;21.10;99.90;;;;;;5034628;28;20120;-73
2022/08/06 00:45:43;;;;;;;0.10;0.10;;;21.10;99.90;;;;;;5052564;28;20064;-73
2022/08/06 00:48:09;;;;;;;0.10;0.10;;;20.90;99.90;;;;;;5051884;28;20032;-73
2022/08/06 00:50:35;;;;;;;0.70;0.70;;;20.80;99.90;;;;;;5052234;28;20366;-73
2022/08/06 00:53:02;;;;;;;0.10;0.10;;;20.50;99.90;;;;;;5034126;28;20028;-73
2022/08/06 00:55:28;;;;;;;2.10;0.98;;;20.50;99.90;;;;;;5051932;28;20057;-73
2022/08/06 00:57:54;;;;;;;0.40;0.30;;;20.50;99.90;;;;;;5051754;28;20167;-73
2022/08/06 01:00:20;;;;;;;0.10;0.10;;;20.40;99.90;;;;;;5051826;28;20136;-73
2022/08/06 01:02:45;;;;;;;0.10;0.10;;;20.20;99.90;;;;;;5051956;28;20031;-73
2022/08/06 01:05:11;;;;;;;0.20;0.20;;;20.20;99.90;;;;;;5053533;28;20044;-73
2022/08/06 01:07:37;;;;;;;0.32;0.32;;;20.10;99.90;;;;;;5054416;28;20302;-73
2022/08/06 01:10:03;;;;;;;0.35;0.35;;;19.80;99.90;;;;;;5054411;28;20075;-73
2022/08/06 01:12:29;;;;;;;0.17;0.17;;;19.70;99.90;;;;;;5055692;28;20041;-73
2022/08/06 01:14:55;;;;;;;0.38;0.38;;;19.60;99.90;;;;;;5055486;28;20075;-73
2022/08/06 01:17:31;;;;;;;0.20;0.20;;;19.80;99.90;;;;;;5054155;28;20031;-73
2022/08/06 01:20:15;;;;;;;0.20;0.20;;;19.80;99.90;;;;;;5055506;28;20021;-73
2022/08/06 01:23:06;;;;;;;0.10;0.10;;;19.70;99.90;;;;;;5054482;28;20024;-73
2022/08/06 01:26:09;;;;;;;0.35;0.30;;;19.70;99.90;;;;;;5055022;28;20387;-73
2022/08/06 01:28:41;;;;;;;0.30;0.30;;;19.70;99.90;;;;;;5055252;28;20029;-73
2022/08/06 01:31:11;;;;;;;0.10;0.10;;;19.40;99.90;;;;;;5055377;28;20029;-73
2022/08/06 01:33:45;;;;;;;0.20;0.20;;;19.30;99.90;;;;;;5054982;28;20029;-73
2022/08/06 01:36:19;;;;;;;0.10;0.10;;;19.20;99.90;;;;;;5053950;28;20024;-73
2022/08/06 01:38:48;;;;;;;0.15;0.15;;;19.20;99.90;;;;;;5055153;28;20104;-73
2022/08/06 01:41:39;;;;;;;0.00;0.00;;;19.30;99.90;;;;;;5053794;28;20033;-73
2022/08/06 01:44:33;;;;;;;0.10;0.10;;;19.40;99.90;;;;;;5053808;28;20388;-73
2022/08/06 01:47:03;;;;;;;0.10;0.10;;;19.50;99.90;;;;;;5052291;28;20037;-73
2022/08/06 01:49:32;;;;;;;0.00;0.00;;;19.50;99.90;;;;;;5055184;28;20377;-73
2022/08/06 01:52:01;;;;;;;0.20;0.20;;;19.50;99.90;;;;;;5055143;28;20033;-73
2022/08/06 01:54:29;;;;;;;0.03;0.03;;;19.70;99.90;;;;;;5053526;28;20025;-73
2022/08/06 01:56:57;;;;;;;1.65;0.90;;;19.80;99.90;;;;;;5054596;28;20491;-73
2022/08/06 01:59:27;;;;;;;0.10;0.10;;;19.70;99.90;;;;;;5054851;28;20028;-73
2022/08/06 02:01:56;;;;;;;0.30;0.30;;;19.60;99.90;;;;;;5054791;28;20028;-73
2022/08/06 02:04:27;;;;;;;0.75;0.40;;;19.50;99.90;;;;;;5053557;28;20108;-73
2022/08/06 02:06:56;;;;;;;0.25;0.25;;;19.30;99.90;;;;;;5053210;28;20025;-73
2022/08/06 02:09:23;;;;;;;0.20;0.20;;;19.30;99.90;;;;;;5036799;28;20052;-73
2022/08/06 02:12:07;;;;;;;0.30;0.30;;;19.20;99.90;;;;;;5054655;28;20354;-73
2022/08/06 02:14:48;;;;;;;1.27;0.45;;;19.30;99.90;;;;;;5054527;28;20100;-73
2022/08/06 02:17:17;;;;;;;0.10;0.10;;;19.40;99.90;;;;;;5052874;28;20021;-73
2022/08/06 02:19:46;;;;;;;0.20;0.20;;;19.50;99.90;;;;;;5054480;28;20052;-73
2022/08/06 02:22:13;;;;;;;0.10;0.10;;;19.70;99.90;;;;;;5054364;28;20025;-73
2022/08/06 02:24:39;;;;;;;0.32;0.30;;;19.90;99.90;;;;;;5053136;28;20036;-73
2022/08/06 02:27:07;;;;;;;0.00;0.00;;;20.10;99.90;;;;;;5052768;28;20025;-73
2022/08/06 02:29:33;;;;;;;0.08;0.08;;;20.40;99.90;;;;;;5052918;28;20119;-73
2022/08/06 02:31:59;;;;;;;0.10;0.10;;;20.70;99.90;;;;;;5052787;28;20051;-73
2022/08/06 02:34:25;;;;;;;0.10;0.10;;;20.90;99.90;;;;;;5052674;28;20025;-73
2022/08/06 02:37:03;;;;;;;0.10;0.10;;;20.90;99.90;;;;;;5053976;28;20416;-73
2022/08/06 02:39:37;;;;;;;0.10;0.10;;;21.10;99.90;;;;;;5054143;28;20086;-73
2022/08/06 02:42:15;;;;;;;0.10;0.10;;;21.10;99.90;;;;;;5052715;28;20539;-73
2022/08/06 02:45:03;;;;;;;0.10;0.10;;;21.10;99.90;;;;;;5052749;28;20083;-73
2022/08/06 02:47:45;;;;;;;0.10;0.10;;;21.10;99.90;;;;;;5052651;28;20445;-73
2022/08/06 02:50:15;;;;;;;0.05;0.05;;;21.10;99.90;;;;;;5052579;28;20111;-73
2022/08/06 02:52:53;;;;;;;0.03;0.03;;;21.10;99.90;;;;;;5053778;28;20105;-73
2022/08/06 02:55:22;;;;;;;1.75;1.10;;;21.10;99.90;;;;;;5052347;28;20104;-73
2022/08/06 02:58:05;;;;;;;0.10;0.10;;;21.10;99.90;;;;;;5052411;28;20021;-73
2022/08/06 03:00:33;;;;;;;0.10;0.10;;;21.00;99.90;;;;;;5052532;28;20389;-73
2022/08/06 03:03:02;;;;;;;0.10;0.10;;;21.00;99.90;;;;;;5052429;28;20102;-73
2022/08/06 03:05:29;;;;;;;0.10;0.10;;;20.80;99.90;;;;;;5052155;28;20025;-73
2022/08/06 03:07:58;;;;;;;0.10;0.10;;;20.80;99.90;;;;;;5052187;28;20567;-73
2022/08/06 03:10:26;;;;;;;0.10;0.10;;;20.60;99.90;;;;;;5053452;28;20384;-73
2022/08/06 03:12:54;;;;;;;0.63;0.63;;;20.40;99.90;;;;;;5052288;28;20527;-73
2022/08/06 03:15:22;;;;;;;0.25;0.25;;;20.30;99.90;;;;;;5051893;28;20029;-73
2022/08/06 03:17:50;;;;;;;0.00;0.00;;;20.30;99.90;;;;;;5051936;28;20028;-74
2022/08/06 03:20:20;;;;;;;0.10;0.10;;;20.30;99.90;;;;;;5053277;28;20056;-74
2022/08/06 03:22:54;;;;;;;0.10;0.10;;;20.20;99.90;;;;;;5052076;28;20091;-74
2022/08/06 03:25:21;;;;;;;0.10;0.10;;;20.40;99.90;;;;;;5053085;28;20032;-72
2022/08/06 03:27:48;;;;;;;1.38;1.08;;;20.40;99.90;;;;;;5052515;28;20025;-72
2022/08/06 03:30:16;;;;;;;0.10;0.10;;;20.30;99.90;;;;;;5052976;28;20365;-72
2022/08/06 03:32:43;;;;;;;0.40;0.25;;;20.40;99.90;;;;;;5053117;28;20135;-72
2022/08/06 03:35:10;;;;;;;0.10;0.10;;;20.40;99.90;;;;;;5053008;28;20021;-71
2022/08/06 03:37:36;;;;;;;0.20;0.20;;;20.40;99.90;;;;;;5052843;28;20110;-72
2022/08/06 03:40:04;;;;;;;0.00;0.00;;;20.60;99.90;;;;;;5052841;28;20021;-72
2022/08/06 03:42:30;;;;;;;0.10;0.10;;;20.80;99.90;;;;;;5052894;28;20024;-72
2022/08/06 03:44:56;;;;;;;0.10;0.10;;;21.00;99.90;;;;;;5052672;28;20031;-71
2022/08/06 03:47:25;;;;;;;0.05;0.05;;;20.90;99.90;;;;;;5052687;28;20384;-72
2022/08/06 03:50:05;;;;;;;0.10;0.10;;;20.80;99.90;;;;;;5052720;28;20025;-72
2022/08/06 03:52:37;;;;;;;0.30;0.30;;;20.60;99.90;;;;;;5052730;28;20021;-71
2022/08/06 03:55:06;;;;;;;0.03;0.03;;;20.40;99.90;;;;;;5052533;28;20021;-71
2022/08/06 03:57:42;;;;;;;0.20;0.20;;;20.40;99.90;;;;;;5051458;28;20031;-71
2022/08/06 04:00:10;;;;;;;0.10;0.10;;;20.30;99.90;;;;;;5034776;28;20040;-72
2022/08/06 04:02:43;;;;;;;0.00;0.00;;;20.30;99.90;;;;;;5051245;28;20027;-72
2022/08/06 04:05:11;;;;;;;0.00;0.00;;;20.50;99.90;;;;;;5052294;28;20096;-72
2022/08/06 04:07:39;;;;;;;0.10;0.10;;;20.60;99.90;;;;;;5051022;28;20349;-72
2022/08/06 04:10:05;;;;;;;0.10;0.10;;;20.60;99.90;;;;;;5052378;28;20086;-71
2022/08/06 04:12:31;;;;;;;0.10;0.10;;;20.60;99.90;;;;;;5052333;28;20032;-72
2022/08/06 04:14:58;;;;;;;0.10;0.10;;;20.80;99.90;;;;;;5052129;28;20036;-71
2022/08/06 04:17:26;;;;;;;0.00;0.00;;;20.70;99.90;;;;;;5052012;28;20049;-72
2022/08/06 04:19:53;;;;;;;0.10;0.10;;;20.60;99.90;;;;;;5052304;28;20454;-72
2022/08/06 04:22:20;;;;;;;0.10;0.10;;;20.50;99.90;;;;;;5052201;28;20099;-72
2022/08/06 04:24:46;;;;;;;0.10;0.10;;;20.40;99.90;;;;;;5052155;28;20031;-72
2022/08/06 04:27:13;;;;;;;0.10;0.10;;;20.40;99.90;;;;;;5051939;28;20052;-71
2022/08/06 04:29:40;;;;;;;0.55;0.55;;;20.30;99.90;;;;;;5050743;28;20431;-72
2022/08/06 04:32:07;;;;;;;0.10;0.10;;;20.40;99.90;;;;;;5052037;28;20116;-71
2022/08/06 04:34:35;;;;;;;0.10;0.10;;;20.30;99.90;;;;;;5051887;28;20400;-72
2022/08/06 04:37:02;;;;;;;0.25;0.13;;;20.40;99.90;;;;;;5051880;28;20025;-72
2022/08/06 04:39:29;;;;;;;3.03;0.22;;;20.30;99.90;;;;;;5049899;28;20029;-71
2022/08/06 04:41:56;;;;;;;1.13;0.75;;;20.30;99.90;;;;;;5052370;28;20542;-72
2022/08/06 04:44:22;;;;;;;0.00;0.00;;;20.30;99.90;;;;;;5051934;28;20100;-72
2022/08/06 04:46:49;;;;;;;0.10;0.10;;;20.40;99.90;;;;;;5033861;28;20557;-72
2022/08/06 04:49:15;;;;;;;3.20;1.27;;;20.40;99.90;;;;;;5050467;28;20074;-72
2022/08/06 04:51:48;;;;;;;0.10;0.10;;;20.30;99.90;;;;;;5051837;28;20082;-71
2022/08/06 04:54:14;;;;;;;0.10;0.10;;;20.30;99.90;;;;;;5051942;28;20025;-71
2022/08/06 04:56:41;;;;;;;0.00;0.00;;;20.30;99.90;;;;;;5033705;28;20029;-72
2022/08/06 04:59:07;;;;;;;0.30;0.28;;;20.40;99.90;;;;;;5050466;28;20451;-71
2022/08/06 05:01:34;;;;;;;0.10;0.10;;;20.30;99.90;;;;;;5050518;28;20061;-72
2022/08/06 05:03:59;;;;;;;0.10;0.10;;;20.30;99.90;;;;;;5050793;28;20029;-72
2022/08/06 05:06:47;;;;;;;0.57;0.57;;;20.20;99.90;;;;;;5050232;28;20021;-71
2022/08/06 05:09:24;;;;;;;0.00;0.00;;;20.30;99.90;;;;;;5050427;28;20021;-72
2022/08/06 05:12:00;;;;;;;0.00;0.00;;;20.40;99.90;;;;;;5051632;28;20504;-72
2022/08/06 05:14:40;;;;;;;0.10;0.10;;;20.40;99.90;;;;;;5050379;28;20024;-72
2022/08/06 05:17:09;;;;;;;0.20;0.20;;;20.50;99.90;;;;;;5033646;28;20021;-72
2022/08/06 05:19:42;;;;;;;0.08;0.08;;;20.60;99.90;;;;;;5050179;28;20090;-72
2022/08/06 05:22:10;;;;;;;0.10;0.10;;;20.50;99.90;;;;;;5051607;28;20392;-71
2022/08/06 05:24:37;;;;;;;0.05;0.05;;;20.50;99.90;;;;;;5050244;28;20619;-72
2022/08/06 05:27:03;;;;;;;1.15;1.05;;;20.50;99.90;;;;;;5033437;28;20033;-72
2022/08/06 05:29:29;;;;;;;0.57;0.57;;;20.30;99.90;;;;;;5050143;28;20029;-73
2022/08/06 05:31:59;;;;;;;0.10;0.10;;;20.40;99.90;;;;;;5051436;28;20092;-73
2022/08/06 05:34:24;;;;;;;0.10;0.10;;;20.50;99.90;;;;;;5051243;28;20025;-72
2022/08/06 05:36:50;;;;;;;0.30;0.30;;;20.50;99.90;;;;;;5051232;28;20075;-72
2022/08/06 05:39:16;;;;;;;0.10;0.10;;;20.40;99.90;;;;;;5051430;28;20104;-73
2022/08/06 05:41:42;;;;;;;1.00;0.80;;;20.40;99.90;;;;;;5051353;28;20497;-73
2022/08/06 05:44:08;;;;;;;1.35;0.80;;;20.60;99.90;;;;;;5051222;28;20124;-73
2022/08/06 05:46:39;;;;;;;0.10;0.10;;;20.50;99.90;;;;;;5051564;28;20096;-73
2022/08/06 05:49:13;;;;;;;0.10;0.10;;;20.50;99.90;;;;;;5051263;28;20025;-72
2022/08/06 05:51:44;;;;;;;0.10;0.10;;;20.30;99.90;;;;;;5053606;28;20024;-73
2022/08/06 05:54:23;;;;;;;0.20;0.20;;;20.40;99.90;;;;;;5053848;28;20020;-73
2022/08/06 05:56:51;;;;;;;0.10;0.10;;;20.40;99.90;;;;;;5054772;28;20032;-73
2022/08/06 05:59:23;;;;;;;0.10;0.10;;;20.60;99.90;;;;;;5054942;28;20025;-73
2022/08/06 06:01:49;;;;;;;;;;;20.50;99.90;;;;;;5053948;28;20021;-73
2022/08/06 06:04:15;;;;;;;0.10;0.10;;;20.40;99.90;;;;;;5054851;28;20387;-73
2022/08/06 06:06:43;;;;;;;0.00;0.00;;;20.50;99.90;;;;;;5054512;28;20025;-73
2022/08/06 06:09:10;;;;;;;0.08;0.08;;;20.70;99.90;;;;;;5053230;28;20400;-73
2022/08/06 06:11:37;;;;;;;0.13;0.13;;;20.70;99.90;;;;;;5054607;28;20021;-73
2022/08/06 06:14:03;;;;;;;0.00;0.00;;;20.70;99.90;;;;;;5054557;28;20389;-73
2022/08/06 06:16:58;;;;;;;0.10;0.10;;;20.70;99.90;;;;;;5054424;28;20104;-73
2022/08/06 06:19:43;;;;;;;0.20;0.20;;;20.60;99.90;;;;;;5054382;28;20040;-73
2022/08/06 06:22:20;;;;;;;0.10;0.10;;;20.50;99.90;;;;;;5053343;28;20048;-73
2022/08/06 06:25:04;;;;;;;0.45;0.45;;;20.40;99.90;;;;;;5054314;28;20029;-73
2022/08/06 06:27:45;;;;;;;0.10;0.10;;;20.40;99.90;;;;;;5054302;28;20025;-73
2022/08/06 06:30:25;;;;;;;0.10;0.10;;;20.30;99.90;;;;;;5052937;28;20384;-73
2022/08/06 06:33:00;;;;;;;0.20;0.20;;;20.20;99.90;;;;;;5054241;28;20025;-73
2022/08/06 06:35:35;;;;;;;0.22;0.22;;;20.10;99.90;;;;;;5053891;28;20040;-73
2022/08/06 06:38:25;;;;;;;1.55;0.77;;;20.00;99.90;;;;;;5054001;28;20043;-73
2022/08/06 06:41:08;;;;;;;2.85;0.98;;;19.90;99.90;;;;;;5053170;28;20032;-73
2022/08/06 06:44:02;;;;;;;0.00;0.00;;;20.10;99.90;;;;;;5052805;28;20071;-75
2022/08/06 06:46:46;;;;;;;0.05;0.05;;;20.30;99.90;;;;;;5053942;28;20025;-74
2022/08/06 06:49:32;;;;;;;0.08;0.08;;;20.40;99.90;;;;;;5053940;28;20040;-74
2022/08/06 06:52:16;;;;;;;0.10;0.10;;;20.50;99.90;;;;;;5053892;28;20055;-74
2022/08/06 06:54:47;;;;;;;0.30;0.30;;;20.50;99.90;;;;;;5052829;28;20013;-74
2022/08/06 06:57:19;;;;;;;0.03;0.03;;;20.30;99.90;;;;;;5053599;28;20013;-74
2022/08/06 06:59:50;;;;;;;0.08;0.08;;;20.30;99.90;;;;;;5053760;28;20043;-74
2022/08/06 07:02:19;;;;;;;;;;;20.20;99.90;;;;;;5053321;28;20032;-74
2022/08/06 07:04:47;;;;;;;0.10;0.10;;;20.20;99.90;;;;;;5053440;28;20287;-74
2022/08/06 07:07:14;;;;;;;0.00;0.00;;;20.10;99.90;;;;;;5053284;28;20155;-74
2022/08/06 07:09:41;;;;;;;0.10;0.10;;;20.00;99.90;;;;;;5052258;28;20040;-74
2022/08/06 07:12:09;;;;;;;0.00;0.00;;;19.90;99.90;;;;;;5052156;28;20116;-74
2022/08/06 07:14:37;;;;;;;2.35;1.55;;;19.90;99.90;;;;;;5052051;28;20370;-74
2022/08/06 07:17:05;;;;;;;0.00;0.00;;;19.80;99.90;;;;;;5050540;28;20103;-73
2022/08/06 07:19:31;;;;;;;0.00;0.00;;;19.70;99.90;;;;;;5039722;28;20080;-73
2022/08/06 07:21:58;;;;;;;0.30;0.30;;;19.80;99.90;;;;;;5043899;28;20025;-73
2022/08/06 07:24:26;;;;;;;0.10;0.10;;;19.70;99.90;;;;;;5052250;28;20025;-73
2022/08/06 07:26:54;;;;;;;1.45;0.40;;;19.60;99.90;;;;;;5035072;28;20033;-73
2022/08/06 07:29:20;;;;;;;0.10;0.10;;;19.70;99.90;;;;;;5046340;28;20028;-73
2022/08/06 07:31:47;;;;;;;0.10;0.10;;;19.60;99.90;;;;;;5043802;28;20433;-73
2022/08/06 07:34:14;;;;;;;0.10;0.10;;;19.60;99.90;;;;;;5033614;28;20025;-73
2022/08/06 07:36:47;;;;;;;0.10;0.10;;;19.70;99.90;;;;;;5051846;28;20040;-73
2022/08/06 07:39:17;;;;;;;0.10;0.10;;;19.60;99.90;;;;;;5050568;28;20041;-73
2022/08/06 07:41:46;;;;;;;0.10;0.10;;;19.60;99.90;;;;;;5052007;28;20469;-73
2022/08/06 07:44:13;;;;;;;0.00;0.00;;;19.60;99.90;;;;;;5038218;28;20048;-73
2022/08/06 07:46:43;;;;;;;0.10;0.10;;;19.30;99.90;;;;;;5030642;28;20029;-73
2022/08/06 07:49:11;;;;;;;0.00;0.00;;;19.30;99.90;;;;;;5031955;28;20504;-74
2022/08/06 07:51:40;;;;;;;0.10;0.10;;;19.40;99.90;;;;;;5014100;28;20026;-73
2022/08/06 07:54:08;;;;;;;0.40;0.40;;;19.10;99.90;;;;;;5032057;28;20561;-74
2022/08/06 07:56:36;;;;;;;0.50;0.50;;;18.90;99.90;;;;;;5030533;28;20025;-71
2022/08/06 07:59:04;;;;;;;1.85;1.50;;;18.90;99.90;;;;;;5031786;28;20033;-73
2022/08/06 08:01:31;;;;;;;0.10;0.10;;;19.10;99.90;;;;;;5046030;28;20029;-74
2022/08/06 08:06:43;;;;;;;0.25;0.25;;;19.10;99.90;;;;;;5049867;28;20021;-73
2022/08/06 08:09:12;;;;;;;0.10;0.10;;;19.10;99.90;;;;;;5041785;28;20021;-76
2022/08/06 08:11:40;;;;;;;0.10;0.10;;;19.10;99.90;;;;;;5041769;28;20029;-74
2022/08/06 08:14:08;;;;;;;0.20;0.20;;;19.10;99.90;;;;;;5038106;28;20021;-74
2022/08/06 08:16:34;;;;;;;0.10;0.10;;;19.00;99.90;;;;;;5040883;28;20478;-74
2022/08/06 08:19:00;;;;;;;0.10;0.10;;;19.00;99.90;;;;;;5002987;28;1073778;-74
2022/08/06 08:21:27;;;;;;;0.17;0.17;;;19.00;99.90;;;;;;5042371;28;20396;-74
2022/08/06 08:23:53;;;;;;;0.10;0.10;;;19.10;99.90;;;;;;5052096;28;20029;-74
2022/08/06 08:26:19;;;;;;;0.10;0.10;;;18.90;99.90;;;;;;5051877;28;20052;-74
2022/08/06 08:28:45;;;;;;;0.10;0.10;;;19.10;99.90;;;;;;5044168;28;20060;-74
2022/08/06 08:31:14;;;;;;;0.10;0.10;;;19.10;99.90;;;;;;5033360;28;20026;-74
2022/08/06 08:33:40;;;;;;;0.30;0.30;;;18.90;99.90;;;;;;5051938;28;20029;-74
2022/08/06 08:36:07;;;;;;;0.13;0.13;;;18.80;99.90;;;;;;5043734;28;20078;-74
2022/08/06 08:38:34;;;;;;;0.00;0.00;;;18.70;99.90;;;;;;5031530;28;20469;-74
2022/08/06 08:41:15;;;;;;;0.05;0.05;;;18.70;99.90;;;;;;5030544;28;20040;-74
2022/08/06 08:43:50;;;;;;;0.10;0.10;;;18.90;99.90;;;;;;5031973;28;20496;-74
2022/08/06 08:46:17;;;;;;;0.10;0.10;;;19.00;99.90;;;;;;5031476;28;20283;-74
2022/08/06 08:48:43;;;;;;;0.22;0.22;;;19.00;99.90;;;;;;5031704;28;20044;-74
2022/08/06 08:51:12;;;;;;;0.10;0.10;;;18.90;99.90;;;;;;5030527;28;20049;-74
2022/08/06 08:53:48;;;;;;;0.40;0.40;;;18.90;99.90;;;;;;5031704;28;20096;-74
2022/08/06 08:56:16;;;;;;;0.10;0.10;;;18.80;99.90;;;;;;5031830;28;20493;-74
2022/08/06 08:58:41;;;;;;;0.10;0.10;;;18.90;99.90;;;;;;5031076;28;20025;-74
2022/08/06 09:01:08;;;;;;;0.10;0.10;;;18.90;99.90;;;;;;5031525;28;20032;-73
2022/08/06 09:03:37;;;;;;;0.10;0.10;;;18.90;99.90;;;;;;5031603;28;20018;-73
2022/08/06 09:06:04;;;;;;;0.00;0.00;;;18.90;99.90;;;;;;5031556;28;20053;-73
2022/08/06 09:08:31;;;;;;;0.57;0.57;;;18.80;99.90;;;;;;5031255;28;20040;-74
2022/08/06 09:10:58;;;;;;;0.10;0.10;;;18.80;99.90;;;;;;5030326;28;20120;-73
2022/08/06 09:13:25;;;;;;;0.10;0.10;;;18.70;99.90;;;;;;5031793;28;20021;-73
2022/08/06 09:15:52;;;;;;;0.10;0.10;;;18.70;99.90;;;;;;5031528;28;20537;-73
2022/08/06 09:18:19;;;;;;;0.10;0.10;;;18.70;99.90;;;;;;5031408;28;20041;-74
2022/08/06 09:20:45;;;;;;;0.00;0.00;;;18.70;99.90;;;;;;5042293;28;20108;-74
2022/08/06 09:23:12;;;;;;;0.43;0.43;;;18.90;99.90;;;;;;5034502;28;20113;-74
2022/08/06 09:25:43;;;;;;;0.40;0.40;;;18.80;99.90;;;;;;5014439;28;20046;-74
2022/08/06 09:28:11;;;;;;;1.00;0.70;;;18.80;99.90;;;;;;5035406;28;20022;-74
2022/08/06 09:30:39;;;;;;;0.65;0.65;;;18.70;99.90;;;;;;5041016;28;20528;-74
2022/08/06 09:33:10;;;;;;;0.05;0.05;;;18.80;99.90;;;;;;5047500;28;20179;-74
2022/08/06 09:35:36;;;;;;;;;;;18.70;99.90;;;;;;5040083;28;20032;-74
2022/08/06 09:38:08;;;;;;;0.10;0.10;;;18.50;99.90;;;;;;5035252;28;20369;-74
2022/08/06 09:40:34;;;;;;;0.10;0.10;;;18.40;99.90;;;;;;5055131;28;20100;-74
2022/08/06 09:43:00;;;;;;;0.20;0.20;;;18.40;99.90;;;;;;5055152;28;20032;-74
2022/08/06 09:45:26;;;;;;;0.55;0.55;;;18.40;99.90;;;;;;5054828;28;20029;-74
2022/08/06 09:48:03;;;;;;;0.10;0.10;;;18.50;99.90;;;;;;5043712;28;20121;-74
2022/08/06 09:50:43;;;;;;;0.00;0.00;;;18.40;99.90;;;;;;5034936;28;20025;-74
2022/08/06 09:53:11;;;;;;;0.20;0.20;;;18.30;99.90;;;;;;5035811;28;20063;-74
2022/08/06 09:55:37;;;;;;;0.10;0.10;;;18.50;99.90;;;;;;5025554;28;20083;-74
2022/08/06 09:58:03;;;;;;;0.10;0.10;;;18.30;99.90;;;;;;5043666;28;20044;-74
2022/08/06 10:00:35;;;;;;;0.00;0.00;;;18.40;99.90;;;;;;5054614;28;20029;-74
2022/08/06 10:03:03;;;;;;;0.35;0.35;;;18.50;99.90;;;;;;5038568;28;20056;-74
2022/08/06 10:05:30;;;;;;;1.42;1.33;;;18.70;99.90;;;;;;5050034;28;20392;-74
2022/08/06 10:08:08;;;;;;;0.10;0.10;;;18.60;99.90;;;;;;5054519;28;20039;-74
2022/08/06 10:10:44;;;;;;;1.75;0.57;;;18.40;99.90;;;;;;5046477;28;20022;-74
2022/08/06 10:13:16;;;;;;;0.10;0.10;;;18.50;99.90;;;;;;5034928;28;20503;-74
2022/08/06 10:15:45;;;;;;;0.10;0.10;;;18.70;99.90;;;;;;5054520;28;20385;-74
2022/08/06 10:18:44;;;;;;;0.10;0.10;;;18.70;99.90;;;;;;5054112;28;20115;-73
2022/08/06 10:21:12;;;;;;;0.30;0.30;;;18.50;99.90;;;;;;5031146;28;20029;-73
2022/08/06 10:23:40;;;;;;;0.10;0.10;;;18.50;99.90;;;;;;5036407;28;20459;-73
2022/08/06 10:26:09;;;;;;;1.38;0.52;;;18.40;99.90;;;;;;5054076;28;20384;-73
2022/08/06 10:28:36;;;;;;;0.22;0.22;;;18.20;99.90;;;;;;5038164;28;20026;-73
2022/08/06 10:31:05;;;;;;;0.65;0.65;;;18.20;99.90;;;;;;5034413;28;20025;-73
2022/08/06 10:33:41;;;;;;;0.10;0.10;;;18.30;99.90;;;;;;5034249;28;20025;-73
2022/08/06 10:36:13;;;;;;;0.20;0.20;;;18.40;99.90;;;;;;5016255;28;20533;-73
2022/08/06 10:38:44;;;;;;;0.00;0.00;;;18.20;99.90;;;;;;5031698;28;20087;-73
2022/08/06 10:41:12;;;;;;;0.98;0.98;;;18.20;99.90;;;;;;5034052;28;20038;-73
2022/08/06 10:43:39;;;;;;;0.10;0.10;;;18.10;99.90;;;;;;5032845;28;20045;-73
2022/08/06 10:46:10;;;;;;;0.10;0.10;;;18.30;99.90;;;;;;5033860;28;20031;-73
2022/08/06 10:48:38;;;;;;;0.03;0.03;;;18.50;99.90;;;;;;5034188;28;20056;-74
2022/08/06 10:51:06;;;;;;;0.20;0.20;;;18.60;99.90;;;;;;5051333;28;20025;-73
2022/08/06 10:53:34;;;;;;;0.20;0.20;;;18.70;99.90;;;;;;5054256;28;20419;-73
2022/08/06 10:56:02;;;;;;;0.15;0.15;;;18.70;99.90;;;;;;5053940;28;20067;-73
2022/08/06 10:58:29;;;;;;;0.38;0.38;;;18.80;99.90;;;;;;5053163;28;20052;-73
2022/08/06 11:00:57;;;;;;;1.30;1.20;;;18.70;99.90;;;;;;5052659;28;20024;-73
2022/08/06 11:03:34;;;;;;;0.30;0.30;;;18.50;99.90;;;;;;5053999;28;20381;-74
2022/08/06 11:06:21;;;;;;;0.98;0.55;;;18.40;99.90;;;;;;5053254;28;20051;-74
2022/08/06 11:09:32;;;;;;;0.00;0.00;;;18.30;99.90;;;;;;5052195;28;20033;-74
2022/08/06 11:12:26;;;;;;;0.10;0.10;;;18.20;99.90;;;;;;5053625;28;20047;-74
2022/08/06 11:14:53;;;;;;;0.05;0.05;;;18.20;99.90;;;;;;5035514;28;20038;-74
2022/08/06 11:17:18;;;;;;;0.85;0.85;;;18.30;99.90;;;;;;5051985;28;20028;-74
2022/08/06 11:19:47;;;;;;;0.10;0.10;;;18.20;99.90;;;;;;5053382;28;20028;-73
2022/08/06 11:22:40;;;;;;;1.75;1.65;;;18.40;99.90;;;;;;5052199;28;20075;-73
2022/08/06 11:25:08;;;;;;;0.10;0.10;;;18.50;99.90;;;;;;5053228;28;20032;-74
2022/08/06 11:27:50;;;;;;;0.40;0.40;;;18.40;99.90;;;;;;5053008;28;20035;-74
2022/08/06 11:30:18;;;;;;;1.75;0.52;;;18.10;99.90;;;;;;5051662;28;20029;-72
2022/08/06 11:32:50;;;;;;;0.65;0.65;;;18.20;99.90;;;;;;5052921;28;20017;-72
2022/08/06 11:35:33;;;;;;;0.20;0.20;;;18.20;99.90;;;;;;5052857;28;20488;-72
2022/08/06 11:38:00;;;;;;;2.67;2.10;;;18.10;99.90;;;;;;5047589;28;20017;-72
2022/08/06 11:40:26;;;;;;;0.65;0.65;;;17.90;99.90;;;;;;5040481;28;20026;-72
2022/08/06 11:42:52;;;;;;;2.00;0.60;;;18.00;99.90;;;;;;5043700;28;20017;-73
2022/08/06 11:45:18;;;;;;;0.15;0.15;;;18.00;99.90;;;;;;5051525;28;20029;-73
2022/08/06 11:48:03;;;;;;;0.00;0.00;;;18.10;99.90;;;;;;5036479;28;20021;-75
2022/08/06 11:50:29;;;;;;;0.98;0.98;;;18.20;99.90;;;;;;5039758;28;20021;-75
2022/08/06 11:52:55;;;;;;;0.22;0.22;;;18.30;99.90;;;;;;5051266;28;20495;-75
2022/08/06 11:55:21;;;;;;;0.40;0.40;;;18.40;99.90;;;;;;5052160;28;20084;-74
2022/08/06 11:57:48;;;;;;;1.40;1.30;;;18.10;99.90;;;;;;5052493;28;20021;-75
2022/08/06 12:00:19;;;;;;;0.10;0.10;;;18.00;99.90;;;;;;5052491;28;20031;-73
2022/08/06 12:02:49;;;;;;;;;;;18.10;99.90;;;;;;5052938;28;20025;-74
2022/08/06 12:05:14;;;;;;;0.90;0.90;;;18.30;99.90;;;;;;5052467;28;19905;-75
2022/08/06 12:07:49;;;;;;;0.00;0.00;;;18.20;99.90;;;;;;5052453;28;20029;-74
2022/08/06 12:10:15;;;;;;;2.20;0.98;;;18.40;99.90;;;;;;5051179;28;20072;-74
2022/08/06 12:12:46;;;;;;;0.32;0.32;;;18.30;99.90;;;;;;5033560;28;20415;-74
2022/08/06 12:15:11;;;;;;;0.37;0.27;;;18.40;99.90;;;;;;5032270;28;20030;-75
2022/08/06 12:17:57;;;;;;;0.40;0.40;;;18.60;99.90;;;;;;5031097;28;20116;-74
2022/08/06 12:20:35;;;;;;;0.10;0.10;;;18.60;99.90;;;;;;5032432;28;20096;-74
2022/08/06 12:23:03;;;;;;;2.30;1.23;;;18.40;99.90;;;;;;5032292;28;20116;-75
2022/08/06 12:25:35;;;;;;;4.50;0.98;;;18.30;99.90;;;;;;5047176;28;20029;-75
2022/08/06 12:28:01;;;;;;;0.10;0.10;;;18.30;99.90;;;;;;5050938;28;20028;-74
2022/08/06 12:30:39;;;;;;;0.00;0.00;;;18.30;99.90;;;;;;5050947;28;20587;-74
2022/08/06 12:33:08;;;;;;;0.05;0.05;;;18.40;99.90;;;;;;5050798;28;20021;-75
2022/08/06 12:35:34;;;;;;;0.63;0.63;;;18.30;99.90;;;;;;5051989;28;20443;-75
2022/08/06 12:38:00;;;;;;;4.00;1.45;;;18.40;99.90;;;;;;5052095;28;20048;-75
2022/08/06 12:40:29;;;;;;;0.10;0.10;;;18.60;99.90;;;;;;5051884;28;20455;-75
2022/08/06 12:43:01;;;;;;;0.80;0.65;;;18.80;99.90;;;;;;5052053;28;20444;-75
2022/08/06 12:45:29;;;;;;;0.88;0.88;;;18.80;99.90;;;;;;5052125;28;20491;-75
2022/08/06 12:48:13;;;;;;;0.10;0.10;;;18.80;99.90;;;;;;5052081;28;20025;-75
2022/08/06 12:50:41;;;;;;;0.10;0.10;;;18.90;99.90;;;;;;5052018;28;20415;-75
2022/08/06 12:53:08;;;;;;;0.28;0.28;;;19.10;99.90;;;;;;5050709;28;20096;-75
2022/08/06 12:55:42;;;;;;;0.00;0.00;;;19.20;99.90;;;;;;5050491;28;20455;-75
2022/08/06 12:58:12;;;;;;;0.03;0.03;;;19.30;99.90;;;;;;5050634;28;20021;-75
2022/08/06 13:00:39;;;;;;;0.10;0.10;;;19.10;99.90;;;;;;5051676;28;20056;-75
2022/08/06 13:03:06;;;;;;;0.40;0.40;;;19.10;99.90;;;;;;5056082;28;20025;-75
2022/08/06 13:05:33;;;;;;;1.25;1.15;;;19.00;99.90;;;;;;5054470;28;20025;-75
2022/08/06 13:07:59;;;;;;;0.25;0.25;;;19.10;99.90;;;;;;5055397;28;20110;-75